sensor_id;sensor_type;location;lat;lon;timestamp;pressure;altitude;pressure_sealevel;temperature;humidity
11808;BME280;5961;42.640;23.380;2023-05-11T00:00:44;94256.44;;;10.41;91.55
11808;BME280;5961;42.640;23.380;2023-05-11T00:03:10;94252.66;;;10.42;90.97
11808;BME280;5961;42.640;23.380;2023-05-11T00:05:37;94261.13;;;10.44;91.16
11808;BME280;5961;42.640;23.380;2023-05-11T00:08:04;94266.88;;;10.46;90.83
11808;BME280;5961;42.640;23.380;2023-05-11T00:10:31;94264.34;;;10.50;90.85
11808;BME280;5961;42.640;23.380;2023-05-11T00:12:59;94269.41;;;10.43;90.57
11808;BME280;5961;42.640;23.380;2023-05-11T00:15:25;94259.81;;;10.51;90.53
11808;BME280;5961;42.640;23.380;2023-05-11T00:17:52;94266.66;;;10.52;90.82
11808;BME280;5961;42.640;23.380;2023-05-11T00:20:19;94275.75;;;10.51;90.67
11808;BME280;5961;42.640;23.380;2023-05-11T00:22:47;94272.75;;;10.52;90.28
11808;BME280;5961;42.640;23.380;2023-05-11T00:25:14;94274.53;;;10.48;90.70
11808;BME280;5961;42.640;23.380;2023-05-11T00:27:41;94270.75;;;10.49;90.53
11808;BME280;5961;42.640;23.380;2023-05-11T00:30:12;94260.06;;;10.37;90.59
11808;BME280;5961;42.640;23.380;2023-05-11T00:32:40;94249.97;;;10.30;90.70
11808;BME280;5961;42.640;23.380;2023-05-11T00:35:08;94273.94;;;10.42;91.22
11808;BME280;5961;42.640;23.380;2023-05-11T00:37:35;94230.25;;;10.11;91.20
11808;BME280;5961;42.640;23.380;2023-05-11T00:40:01;94272.91;;;10.35;91.15
11808;BME280;5961;42.640;23.380;2023-05-11T00:42:28;94275.13;;;10.33;91.19
11808;BME280;5961;42.640;23.380;2023-05-11T00:44:55;94269.66;;;10.29;91.41
11808;BME280;5961;42.640;23.380;2023-05-11T00:47:24;94278.41;;;10.30;91.52
11808;BME280;5961;42.640;23.380;2023-05-11T00:49:52;94291.69;;;10.30;91.48
11808;BME280;5961;42.640;23.380;2023-05-11T00:52:20;94283.25;;;10.28;91.90
11808;BME280;5961;42.640;23.380;2023-05-11T00:54:47;94290.47;;;10.27;92.16
11808;BME280;5961;42.640;23.380;2023-05-11T00:57:14;94281.59;;;10.23;91.86
11808;BME280;5961;42.640;23.380;2023-05-11T00:59:41;94277.06;;;10.24;91.59
11808;BME280;5961;42.640;23.380;2023-05-11T01:02:08;94279.72;;;10.24;91.34
11808;BME280;5961;42.640;23.380;2023-05-11T01:04:36;94264.47;;;10.12;91.55
11808;BME280;5961;42.640;23.380;2023-05-11T01:07:09;94267.59;;;10.14;91.79
11808;BME280;5961;42.640;23.380;2023-05-11T01:09:45;94270.13;;;10.02;91.94
11808;BME280;5961;42.640;23.380;2023-05-11T01:12:24;94271.44;;;9.96;92.30
11808;BME280;5961;42.640;23.380;2023-05-11T01:15:00;94274.91;;;9.88;92.80
11808;BME280;5961;42.640;23.380;2023-05-11T01:17:35;94276.31;;;9.85;92.91
11808;BME280;5961;42.640;23.380;2023-05-11T01:20:10;94274.44;;;9.86;92.89
11808;BME280;5961;42.640;23.380;2023-05-11T01:22:47;94269.78;;;9.83;93.30
11808;BME280;5961;42.640;23.380;2023-05-11T01:25:34;94270.25;;;9.85;93.65
11808;BME280;5961;42.640;23.380;2023-05-11T01:28:19;94272.25;;;9.88;93.58
11808;BME280;5961;42.640;23.380;2023-05-11T01:30:50;94266.47;;;9.86;93.57
11808;BME280;5961;42.640;23.380;2023-05-11T01:33:24;94267.13;;;9.83;93.67
11808;BME280;5961;42.640;23.380;2023-05-11T01:35:55;94267.75;;;9.80;93.69
11808;BME280;5961;42.640;23.380;2023-05-11T01:38:29;94264.97;;;9.76;94.17
11808;BME280;5961;42.640;23.380;2023-05-11T01:40:59;94278.13;;;9.73;94.29
11808;BME280;5961;42.640;23.380;2023-05-11T01:43:27;94267.53;;;9.64;94.88
11808;BME280;5961;42.640;23.380;2023-05-11T01:45:59;94271.44;;;9.67;95.14
11808;BME280;5961;42.640;23.380;2023-05-11T01:48:28;94272.53;;;9.66;94.48
11808;BME280;5961;42.640;23.380;2023-05-11T01:51:00;94270.50;;;9.63;94.77
11808;BME280;5961;42.640;23.380;2023-05-11T01:53:31;94276.75;;;9.67;94.76
11808;BME280;5961;42.640;23.380;2023-05-11T01:55:59;94271.44;;;9.67;94.43
11808;BME280;5961;42.640;23.380;2023-05-11T01:58:27;94278.28;;;9.68;94.14
11808;BME280;5961;42.640;23.380;2023-05-11T02:00:55;94282.50;;;9.69;93.96
11808;BME280;5961;42.640;23.380;2023-05-11T02:03:27;94278.44;;;9.71;93.80
11808;BME280;5961;42.640;23.380;2023-05-11T02:05:56;94273.16;;;9.63;93.14
11808;BME280;5961;42.640;23.380;2023-05-11T02:08:24;94276.41;;;9.68;92.65
11808;BME280;5961;42.640;23.380;2023-05-11T02:10:52;94273.72;;;9.77;92.76
11808;BME280;5961;42.640;23.380;2023-05-11T02:13:20;94275.91;;;9.75;92.20
11808;BME280;5961;42.640;23.380;2023-05-11T02:15:50;94273.47;;;9.70;91.92
11808;BME280;5961;42.640;23.380;2023-05-11T02:18:18;94272.34;;;9.71;91.85
11808;BME280;5961;42.640;23.380;2023-05-11T02:20:48;94270.16;;;9.73;91.82
11808;BME280;5961;42.640;23.380;2023-05-11T02:23:17;94265.50;;;9.70;91.83
11808;BME280;5961;42.640;23.380;2023-05-11T02:25:45;94274.34;;;9.74;91.58
11808;BME280;5961;42.640;23.380;2023-05-11T02:28:14;94269.69;;;9.71;91.12
11808;BME280;5961;42.640;23.380;2023-05-11T02:30:51;94265.94;;;9.72;91.06
11808;BME280;5961;42.640;23.380;2023-05-11T02:33:20;94261.28;;;9.69;90.97
11808;BME280;5961;42.640;23.380;2023-05-11T02:35:54;94269.72;;;9.62;90.89
11808;BME280;5961;42.640;23.380;2023-05-11T02:38:25;94267.50;;;9.73;91.04
11808;BME280;5961;42.640;23.380;2023-05-11T02:41:11;94274.53;;;9.69;90.17
11808;BME280;5961;42.640;23.380;2023-05-11T02:43:43;94262.56;;;9.63;89.88
11808;BME280;5961;42.640;23.380;2023-05-11T02:46:14;94271.78;;;9.57;90.13
11808;BME280;5961;42.640;23.380;2023-05-11T02:48:45;94282.22;;;9.62;90.13
11808;BME280;5961;42.640;23.380;2023-05-11T02:51:14;94266.28;;;9.62;89.86
11808;BME280;5961;42.640;23.380;2023-05-11T02:53:43;94269.13;;;9.57;90.24
11808;BME280;5961;42.640;23.380;2023-05-11T02:56:12;94256.97;;;9.56;90.20
11808;BME280;5961;42.640;23.380;2023-05-11T02:58:39;94263.84;;;9.57;90.54
11808;BME280;5961;42.640;23.380;2023-05-11T03:01:06;94260.25;;;9.53;90.16
11808;BME280;5961;42.640;23.380;2023-05-11T03:03:33;94259.16;;;9.54;90.34
11808;BME280;5961;42.640;23.380;2023-05-11T03:05:59;94255.44;;;9.55;89.94
11808;BME280;5961;42.640;23.380;2023-05-11T03:08:27;94257.28;;;9.54;90.25
11808;BME280;5961;42.640;23.380;2023-05-11T03:10:56;94255.44;;;9.55;90.54
11808;BME280;5961;42.640;23.380;2023-05-11T03:13:24;94256.06;;;9.52;90.53
11808;BME280;5961;42.640;23.380;2023-05-11T03:15:51;94252.03;;;9.46;91.04
11808;BME280;5961;42.640;23.380;2023-05-11T03:18:18;94257.84;;;9.39;91.58
11808;BME280;5961;42.640;23.380;2023-05-11T03:20:46;94249.72;;;9.35;92.05
11808;BME280;5961;42.640;23.380;2023-05-11T03:23:14;94206.16;;;9.07;92.08
11808;BME280;5961;42.640;23.380;2023-05-11T03:25:44;94254.69;;;9.37;92.47
11808;BME280;5961;42.640;23.380;2023-05-11T03:28:12;94252.41;;;9.27;92.80
11808;BME280;5961;42.640;23.380;2023-05-11T03:30:42;94255.66;;;9.32;93.14
11808;BME280;5961;42.640;23.380;2023-05-11T03:33:10;94253.84;;;9.24;93.17
11808;BME280;5961;42.640;23.380;2023-05-11T03:35:40;94264.72;;;9.31;93.13
11808;BME280;5961;42.640;23.380;2023-05-11T03:38:10;94259.88;;;9.33;93.18
11808;BME280;5961;42.640;23.380;2023-05-11T03:40:39;94243.53;;;9.23;93.10
11808;BME280;5961;42.640;23.380;2023-05-11T03:43:10;94210.22;;;9.05;93.05
11808;BME280;5961;42.640;23.380;2023-05-11T03:45:38;94261.44;;;9.34;93.13
11808;BME280;5961;42.640;23.380;2023-05-11T03:48:07;94269.06;;;9.36;93.11
11808;BME280;5961;42.640;23.380;2023-05-11T03:50:37;94267.22;;;9.36;93.07
11808;BME280;5961;42.640;23.380;2023-05-11T03:53:04;94268.75;;;9.37;93.07
11808;BME280;5961;42.640;23.380;2023-05-11T03:55:31;94275.63;;;9.38;93.36
11808;BME280;5961;42.640;23.380;2023-05-11T03:57:58;94272.00;;;9.43;93.08
11808;BME280;5961;42.640;23.380;2023-05-11T04:00:26;94276.66;;;9.46;93.31
11808;BME280;5961;42.640;23.380;2023-05-11T04:02:55;94276.66;;;9.46;92.99
11808;BME280;5961;42.640;23.380;2023-05-11T04:05:21;94277.94;;;9.49;93.24
11808;BME280;5961;42.640;23.380;2023-05-11T04:07:51;94272.19;;;9.38;92.77
11808;BME280;5961;42.640;23.380;2023-05-11T04:10:18;94277.94;;;9.49;93.18
11808;BME280;5961;42.640;23.380;2023-05-11T04:12:46;94277.09;;;9.57;92.76
11808;BME280;5961;42.640;23.380;2023-05-11T04:15:13;94283.50;;;9.56;92.72
11808;BME280;5961;42.640;23.380;2023-05-11T04:17:41;94287.06;;;9.60;92.94
11808;BME280;5961;42.640;23.380;2023-05-11T04:20:08;94284.88;;;9.62;93.28
11808;BME280;5961;42.640;23.380;2023-05-11T04:22:35;94286.63;;;9.49;93.57
11808;BME280;5961;42.640;23.380;2023-05-11T04:25:02;94285.50;;;9.59;93.36
11808;BME280;5961;42.640;23.380;2023-05-11T04:27:31;94289.41;;;9.61;93.64
11808;BME280;5961;42.640;23.380;2023-05-11T04:29:58;94268.84;;;9.50;93.47
11808;BME280;5961;42.640;23.380;2023-05-11T04:32:24;94288.16;;;9.59;93.84
11808;BME280;5961;42.640;23.380;2023-05-11T04:34:53;94289.28;;;9.58;94.12
11808;BME280;5961;42.640;23.380;2023-05-11T04:37:20;94288.16;;;9.59;94.36
11808;BME280;5961;42.640;23.380;2023-05-11T04:39:47;94295.66;;;9.57;94.75
11808;BME280;5961;42.640;23.380;2023-05-11T04:42:13;94295.34;;;9.58;94.61
11808;BME280;5961;42.640;23.380;2023-05-11T04:44:40;94295.03;;;9.60;94.82
11808;BME280;5961;42.640;23.380;2023-05-11T04:47:07;94299.41;;;9.56;95.29
11808;BME280;5961;42.640;23.380;2023-05-11T04:49:33;94300.97;;;9.57;95.14
11808;BME280;5961;42.640;23.380;2023-05-11T04:52:02;94296.75;;;9.56;95.11
11808;BME280;5961;42.640;23.380;2023-05-11T04:54:28;94301.44;;;9.59;94.90
11808;BME280;5961;42.640;23.380;2023-05-11T04:56:56;94291.78;;;9.54;95.64
11808;BME280;5961;42.640;23.380;2023-05-11T04:59:23;94301.75;;;9.57;95.62
11808;BME280;5961;42.640;23.380;2023-05-11T05:01:49;94300.19;;;9.56;95.38
11808;BME280;5961;42.640;23.380;2023-05-11T05:04:16;94309.25;;;9.55;95.26
11808;BME280;5961;42.640;23.380;2023-05-11T05:06:43;94309.75;;;9.49;95.60
11808;BME280;5961;42.640;23.380;2023-05-11T05:09:11;94305.09;;;9.46;96.03
11808;BME280;5961;42.640;23.380;2023-05-11T05:11:37;94307.25;;;9.44;96.45
11808;BME280;5961;42.640;23.380;2023-05-11T05:14:04;94300.41;;;9.43;96.54
11808;BME280;5961;42.640;23.380;2023-05-11T05:16:31;94318.97;;;9.51;96.54
11808;BME280;5961;42.640;23.380;2023-05-11T05:18:57;94320.81;;;9.51;96.48
11808;BME280;5961;42.640;23.380;2023-05-11T05:21:24;94321.91;;;9.50;97.28
11808;BME280;5961;42.640;23.380;2023-05-11T05:23:51;94312.13;;;9.42;97.90
11808;BME280;5961;42.640;23.380;2023-05-11T05:26:19;94311.47;;;9.45;99.54
11808;BME280;5961;42.640;23.380;2023-05-11T05:28:46;94319.28;;;9.41;99.49
11808;BME280;5961;42.640;23.380;2023-05-11T05:31:12;94317.72;;;9.40;98.80
11808;BME280;5961;42.640;23.380;2023-05-11T05:33:39;94321.66;;;9.34;99.47
11808;BME280;5961;42.640;23.380;2023-05-11T05:36:06;94324.94;;;9.40;99.92
11808;BME280;5961;42.640;23.380;2023-05-11T05:38:33;94316.19;;;9.39;99.65
11808;BME280;5961;42.640;23.380;2023-05-11T05:40:59;94326.44;;;9.49;99.20
11808;BME280;5961;42.640;23.380;2023-05-11T05:43:28;94313.84;;;9.37;99.14
11808;BME280;5961;42.640;23.380;2023-05-11T05:45:54;94328.78;;;9.51;98.09
11808;BME280;5961;42.640;23.380;2023-05-11T05:48:21;94328.78;;;9.51;97.80
11808;BME280;5961;42.640;23.380;2023-05-11T05:50:48;94323.03;;;9.49;97.88
11808;BME280;5961;42.640;23.380;2023-05-11T05:53:15;94328.16;;;9.54;98.47
11808;BME280;5961;42.640;23.380;2023-05-11T05:55:42;94331.75;;;9.49;97.26
11808;BME280;5961;42.640;23.380;2023-05-11T05:58:09;94332.66;;;9.53;96.65
11808;BME280;5961;42.640;23.380;2023-05-11T06:00:38;94327.84;;;9.47;96.53
11808;BME280;5961;42.640;23.380;2023-05-11T06:03:04;94325.56;;;9.36;96.47
11808;BME280;5961;42.640;23.380;2023-05-11T06:05:31;94333.97;;;9.38;96.19
11808;BME280;5961;42.640;23.380;2023-05-11T06:07:58;94336.16;;;9.36;96.29
11808;BME280;5961;42.640;23.380;2023-05-11T06:10:24;94337.25;;;9.35;96.64
11808;BME280;5961;42.640;23.380;2023-05-11T06:12:52;94338.53;;;9.29;96.73
11808;BME280;5961;42.640;23.380;2023-05-11T06:15:19;94357.69;;;9.35;96.89
11808;BME280;5961;42.640;23.380;2023-05-11T06:17:47;94356.91;;;9.34;97.57
11808;BME280;5961;42.640;23.380;2023-05-11T06:20:14;94340.09;;;9.30;97.58
11808;BME280;5961;42.640;23.380;2023-05-11T06:22:40;94337.31;;;9.18;98.20
11808;BME280;5961;42.640;23.380;2023-05-11T06:25:07;94349.13;;;9.29;97.82
11808;BME280;5961;42.640;23.380;2023-05-11T06:27:34;94359.56;;;9.34;97.75
11808;BME280;5961;42.640;23.380;2023-05-11T06:30:00;94353.34;;;9.30;97.91
11808;BME280;5961;42.640;23.380;2023-05-11T06:32:27;94361.31;;;9.30;98.52
11808;BME280;5961;42.640;23.380;2023-05-11T06:34:55;94365.50;;;9.31;98.54
11808;BME280;5961;42.640;23.380;2023-05-11T06:37:22;94371.91;;;9.30;98.21
11808;BME280;5961;42.640;23.380;2023-05-11T06:39:48;94370.97;;;9.26;98.71
11808;BME280;5961;42.640;23.380;2023-05-11T06:42:15;94366.47;;;9.27;99.09
11808;BME280;5961;42.640;23.380;2023-05-11T06:44:42;94368.78;;;9.28;99.21
11808;BME280;5961;42.640;23.380;2023-05-11T06:47:08;94363.47;;;9.28;99.02
11808;BME280;5961;42.640;23.380;2023-05-11T06:49:35;94361.44;;;9.25;99.08
11808;BME280;5961;42.640;23.380;2023-05-11T06:52:03;94349.94;;;9.21;98.97
11808;BME280;5961;42.640;23.380;2023-05-11T06:54:30;94351.19;;;9.15;99.44
11808;BME280;5961;42.640;23.380;2023-05-11T06:56:57;94349.28;;;9.16;99.06
11808;BME280;5961;42.640;23.380;2023-05-11T06:59:24;94374.88;;;9.29;99.15
11808;BME280;5961;42.640;23.380;2023-05-11T07:01:52;94361.31;;;9.30;99.19
11808;BME280;5961;42.640;23.380;2023-05-11T07:04:18;94364.88;;;9.26;98.91
11808;BME280;5961;42.640;23.380;2023-05-11T07:06:45;94371.59;;;9.23;98.65
11808;BME280;5961;42.640;23.380;2023-05-11T07:09:13;94364.72;;;9.22;99.03
11808;BME280;5961;42.640;23.380;2023-05-11T07:11:40;94373.63;;;9.26;98.64
11808;BME280;5961;42.640;23.380;2023-05-11T07:14:06;94370.53;;;9.24;98.40
11808;BME280;5961;42.640;23.380;2023-05-11T07:16:33;94346.50;;;9.21;98.43
11808;BME280;5961;42.640;23.380;2023-05-11T07:19:02;94373.44;;;9.31;98.08
11808;BME280;5961;42.640;23.380;2023-05-11T07:21:29;94345.53;;;9.25;97.86
11808;BME280;5961;42.640;23.380;2023-05-11T07:23:57;94360.34;;;9.35;96.85
11808;BME280;5961;42.640;23.380;2023-05-11T07:26:25;94369.09;;;9.35;97.15
11808;BME280;5961;42.640;23.380;2023-05-11T07:28:51;94371.56;;;9.41;97.28
11808;BME280;5961;42.640;23.380;2023-05-11T07:31:18;94370.28;;;9.47;96.73
11808;BME280;5961;42.640;23.380;2023-05-11T07:33:45;94347.56;;;9.28;96.86
11808;BME280;5961;42.640;23.380;2023-05-11T07:36:12;94367.00;;;9.50;96.25
11808;BME280;5961;42.640;23.380;2023-05-11T07:38:38;94376.69;;;9.54;96.12
11808;BME280;5961;42.640;23.380;2023-05-11T07:41:05;94369.34;;;9.60;96.36
11808;BME280;5961;42.640;23.380;2023-05-11T07:43:33;94365.09;;;9.59;95.71
11808;BME280;5961;42.640;23.380;2023-05-11T07:46:00;94364.03;;;9.60;95.31
11808;BME280;5961;42.640;23.380;2023-05-11T07:48:27;94363.25;;;9.59;94.37
11808;BME280;5961;42.640;23.380;2023-05-11T07:50:53;94369.78;;;9.62;94.47
11808;BME280;5961;42.640;23.380;2023-05-11T07:53:20;94366.16;;;9.75;94.30
11808;BME280;5961;42.640;23.380;2023-05-11T07:55:47;94377.06;;;9.82;93.00
11808;BME280;5961;42.640;23.380;2023-05-11T07:58:13;94368.72;;;9.92;92.92
11808;BME280;5961;42.640;23.380;2023-05-11T08:00:42;94368.88;;;9.96;91.44
11808;BME280;5961;42.640;23.380;2023-05-11T08:03:08;94377.38;;;10.10;91.37
11808;BME280;5961;42.640;23.380;2023-05-11T08:05:35;94364.28;;;10.13;90.40
11808;BME280;5961;42.640;23.380;2023-05-11T08:08:02;94383.25;;;10.32;89.68
11808;BME280;5961;42.640;23.380;2023-05-11T08:10:29;94388.00;;;10.48;89.10
11808;BME280;5961;42.640;23.380;2023-05-11T08:12:56;94381.53;;;10.57;86.97
11808;BME280;5961;42.640;23.380;2023-05-11T08:15:23;94378.03;;;10.65;87.11
11808;BME280;5961;42.640;23.380;2023-05-11T08:17:52;94386.72;;;10.74;85.61
11808;BME280;5961;42.640;23.380;2023-05-11T08:20:18;94395.41;;;10.83;84.71
11808;BME280;5961;42.640;23.380;2023-05-11T08:22:45;94395.03;;;10.93;84.67
11808;BME280;5961;42.640;23.380;2023-05-11T08:25:12;94387.63;;;10.99;83.22
11808;BME280;5961;42.640;23.380;2023-05-11T08:27:39;94389.50;;;10.98;83.69
11808;BME280;5961;42.640;23.380;2023-05-11T08:30:06;94382.91;;;11.05;83.44
11808;BME280;5961;42.640;23.380;2023-05-11T08:32:34;94382.56;;;11.06;83.76
11808;BME280;5961;42.640;23.380;2023-05-11T08:35:02;94380.81;;;11.10;82.87
11808;BME280;5961;42.640;23.380;2023-05-11T08:37:30;94384.50;;;11.18;83.81
11808;BME280;5961;42.640;23.380;2023-05-11T08:39:57;94397.72;;;11.26;82.63
11808;BME280;5961;42.640;23.380;2023-05-11T08:42:24;94393.28;;;11.30;82.48
11808;BME280;5961;42.640;23.380;2023-05-11T08:44:54;94371.91;;;11.27;81.69
11808;BME280;5961;42.640;23.380;2023-05-11T08:47:22;94387.56;;;11.40;81.62
11808;BME280;5961;42.640;23.380;2023-05-11T08:49:49;94387.56;;;11.40;82.08
11808;BME280;5961;42.640;23.380;2023-05-11T08:52:18;94397.34;;;11.48;82.41
11808;BME280;5961;42.640;23.380;2023-05-11T08:54:45;94383.50;;;11.55;83.07
11808;BME280;5961;42.640;23.380;2023-05-11T08:57:13;94359.41;;;11.39;82.19
11808;BME280;5961;42.640;23.380;2023-05-11T08:59:40;94384.06;;;11.61;82.29
11808;BME280;5961;42.640;23.380;2023-05-11T09:02:13;94377.66;;;11.62;82.12
11808;BME280;5961;42.640;23.380;2023-05-11T09:04:44;94367.00;;;11.62;82.31
11808;BME280;5961;42.640;23.380;2023-05-11T09:07:13;94375.47;;;11.76;81.85
11808;BME280;5961;42.640;23.380;2023-05-11T09:09:42;94375.41;;;11.84;81.54
11808;BME280;5961;42.640;23.380;2023-05-11T09:12:09;94375.63;;;11.91;82.10
11808;BME280;5961;42.640;23.380;2023-05-11T09:14:36;94369.63;;;11.94;81.87
11808;BME280;5961;42.640;23.380;2023-05-11T09:17:03;94370.63;;;12.02;82.17
11808;BME280;5961;42.640;23.380;2023-05-11T09:19:30;94369.63;;;12.06;82.76
11808;BME280;5961;42.640;23.380;2023-05-11T09:21:57;94377.84;;;12.14;82.63
11808;BME280;5961;42.640;23.380;2023-05-11T09:24:24;94379.97;;;12.20;83.22
11808;BME280;5961;42.640;23.380;2023-05-11T09:27:05;94383.19;;;12.26;82.79
11808;BME280;5961;42.640;23.380;2023-05-11T09:29:32;94379.84;;;12.29;82.68
11808;BME280;5961;42.640;23.380;2023-05-11T09:31:58;94379.31;;;12.35;82.63
11808;BME280;5961;42.640;23.380;2023-05-11T09:34:25;94375.75;;;12.31;82.09
11808;BME280;5961;42.640;23.380;2023-05-11T09:36:53;94392.28;;;12.37;81.40
11808;BME280;5961;42.640;23.380;2023-05-11T09:39:27;94380.16;;;12.27;81.55
11808;BME280;5961;42.640;23.380;2023-05-11T09:42:13;94387.50;;;12.18;81.70
11808;BME280;5961;42.640;23.380;2023-05-11T09:44:41;94379.50;;;12.06;82.32
11808;BME280;5961;42.640;23.380;2023-05-11T09:47:12;94392.63;;;11.99;83.52
11808;BME280;5961;42.640;23.380;2023-05-11T09:49:39;94375.97;;;11.90;83.38
11808;BME280;5961;42.640;23.380;2023-05-11T09:52:09;94373.50;;;11.85;84.37
11808;BME280;5961;42.640;23.380;2023-05-11T09:54:43;94363.72;;;11.77;83.79
11808;BME280;5961;42.640;23.380;2023-05-11T09:57:23;94328.94;;;11.61;84.48
11808;BME280;5961;42.640;23.380;2023-05-11T09:59:51;94364.16;;;11.79;84.50
11808;BME280;5961;42.640;23.380;2023-05-11T10:02:19;94360.50;;;11.71;85.02
11808;BME280;5961;42.640;23.380;2023-05-11T10:04:47;94361.00;;;11.65;85.83
11808;BME280;5961;42.640;23.380;2023-05-11T10:07:24;94327.03;;;11.37;85.27
11808;BME280;5961;42.640;23.380;2023-05-11T10:09:53;94354.75;;;11.48;85.44
11808;BME280;5961;42.640;23.380;2023-05-11T10:12:23;94339.66;;;11.40;85.84
11808;BME280;5961;42.640;23.380;2023-05-11T10:14:53;94345.66;;;11.37;85.49
11808;BME280;5961;42.640;23.380;2023-05-11T10:17:20;94308.22;;;11.10;85.56
11808;BME280;5961;42.640;23.380;2023-05-11T10:19:48;94333.31;;;11.21;86.25
11808;BME280;5961;42.640;23.380;2023-05-11T10:22:15;94337.06;;;11.20;85.96
11808;BME280;5961;42.640;23.380;2023-05-11T10:24:42;94336.72;;;11.21;85.69
11808;BME280;5961;42.640;23.380;2023-05-11T10:27:10;94332.72;;;11.15;85.00
11808;BME280;5961;42.640;23.380;2023-05-11T10:29:38;94334.72;;;11.18;85.11
11808;BME280;5961;42.640;23.380;2023-05-11T10:32:06;94338.28;;;11.22;85.62
11808;BME280;5961;42.640;23.380;2023-05-11T10:34:33;94329.78;;;11.29;85.34
11808;BME280;5961;42.640;23.380;2023-05-11T10:37:00;94319.81;;;11.38;85.46
11808;BME280;5961;42.640;23.380;2023-05-11T10:39:28;94266.44;;;11.10;83.77
11808;BME280;5961;42.640;23.380;2023-05-11T10:42:06;94315.28;;;11.38;84.58
11808;BME280;5961;42.640;23.380;2023-05-11T10:45:13;94315.28;;;11.38;83.97
11808;BME280;5961;42.640;23.380;2023-05-11T10:48:07;94334.22;;;11.37;84.66
11808;BME280;5961;42.640;23.380;2023-05-11T10:50:49;94323.47;;;11.33;84.90
11808;BME280;5961;42.640;23.380;2023-05-11T10:53:30;94319.91;;;11.29;85.58
11808;BME280;5961;42.640;23.380;2023-05-11T10:56:09;94331.56;;;11.37;84.96
11808;BME280;5961;42.640;23.380;2023-05-11T10:58:55;94302.78;;;11.18;85.26
11808;BME280;5961;42.640;23.380;2023-05-11T11:01:37;94324.72;;;11.36;84.43
11808;BME280;5961;42.640;23.380;2023-05-11T11:04:06;94306.63;;;11.41;84.11
11808;BME280;5961;42.640;23.380;2023-05-11T11:06:35;94320.25;;;11.40;84.12
11808;BME280;5961;42.640;23.380;2023-05-11T11:09:03;94311.75;;;11.46;84.28
11808;BME280;5961;42.640;23.380;2023-05-11T11:11:32;94320.75;;;11.54;85.14
11808;BME280;5961;42.640;23.380;2023-05-11T11:14:00;94320.41;;;11.55;84.89
11808;BME280;5961;42.640;23.380;2023-05-11T11:16:30;94327.00;;;11.70;84.36
11808;BME280;5961;42.640;23.380;2023-05-11T11:19:35;94313.47;;;11.75;83.74
11808;BME280;5961;42.640;23.380;2023-05-11T11:22:03;94325.34;;;11.78;82.76
11808;BME280;5961;42.640;23.380;2023-05-11T11:24:41;94319.69;;;11.79;83.38
11808;BME280;5961;42.640;23.380;2023-05-11T11:27:09;94314.25;;;11.88;84.03
11808;BME280;5961;42.640;23.380;2023-05-11T11:29:39;94304.06;;;11.90;82.95
11808;BME280;5961;42.640;23.380;2023-05-11T11:32:24;94310.91;;;12.03;83.43
11808;BME280;5961;42.640;23.380;2023-05-11T11:34:54;94318.47;;;12.13;82.31
11808;BME280;5961;42.640;23.380;2023-05-11T11:37:21;94315.13;;;12.16;81.83
11808;BME280;5961;42.640;23.380;2023-05-11T11:39:54;94320.88;;;12.18;81.13
11808;BME280;5961;42.640;23.380;2023-05-11T11:42:33;94313.13;;;12.25;81.16
11808;BME280;5961;42.640;23.380;2023-05-11T11:45:27;94318.00;;;12.35;80.88
11808;BME280;5961;42.640;23.380;2023-05-11T11:48:08;94308.19;;;12.39;80.46
11808;BME280;5961;42.640;23.380;2023-05-11T11:50:38;94317.75;;;12.40;80.81
11808;BME280;5961;42.640;23.380;2023-05-11T11:53:09;94304.88;;;12.42;81.12
11808;BME280;5961;42.640;23.380;2023-05-11T11:55:46;94310.97;;;12.43;80.34
11808;BME280;5961;42.640;23.380;2023-05-11T12:01:14;94306.13;;;12.33;81.32
11808;BME280;5961;42.640;23.380;2023-05-11T12:03:43;94311.66;;;12.28;80.76
11808;BME280;5961;42.640;23.380;2023-05-11T12:06:12;94274.06;;;12.05;81.27
11808;BME280;5961;42.640;23.380;2023-05-11T12:08:41;94301.50;;;12.18;80.97
11808;BME280;5961;42.640;23.380;2023-05-11T12:11:08;94311.38;;;12.17;81.49
11808;BME280;5961;42.640;23.380;2023-05-11T12:13:35;94298.50;;;12.07;81.71
11808;BME280;5961;42.640;23.380;2023-05-11T12:16:08;94294.72;;;12.08;82.76
11808;BME280;5961;42.640;23.380;2023-05-11T12:18:35;94300.72;;;12.05;82.02
11808;BME280;5961;42.640;23.380;2023-05-11T12:21:02;94296.25;;;11.97;82.81
11808;BME280;5961;42.640;23.380;2023-05-11T12:23:30;94196.88;;;11.32;82.62
11808;BME280;5961;42.640;23.380;2023-05-11T12:26:00;94276.63;;;11.89;82.50
11808;BME280;5961;42.640;23.380;2023-05-11T12:28:27;94287.19;;;11.86;81.75
11808;BME280;5961;42.640;23.380;2023-05-11T12:30:54;94288.63;;;11.95;81.95
11808;BME280;5961;42.640;23.380;2023-05-11T12:33:22;94292.25;;;12.03;81.72
11808;BME280;5961;42.640;23.380;2023-05-11T12:35:51;94279.19;;;11.98;81.97
11808;BME280;5961;42.640;23.380;2023-05-11T12:38:18;94280.50;;;11.92;81.82
11808;BME280;5961;42.640;23.380;2023-05-11T12:40:48;94288.94;;;11.94;81.66
11808;BME280;5961;42.640;23.380;2023-05-11T12:43:16;94276.75;;;11.81;82.09
11808;BME280;5961;42.640;23.380;2023-05-11T12:45:44;94278.53;;;11.89;82.93
11808;BME280;5961;42.640;23.380;2023-05-11T12:48:11;94259.66;;;11.82;82.37
11808;BME280;5961;42.640;23.380;2023-05-11T12:50:41;94265.88;;;11.86;83.08
11808;BME280;5961;42.640;23.380;2023-05-11T12:53:11;94261.75;;;11.88;83.54
11808;BME280;5961;42.640;23.380;2023-05-11T12:55:39;94258.31;;;11.88;82.39
11808;BME280;5961;42.640;23.380;2023-05-11T12:58:10;94258.31;;;11.88;82.47
11808;BME280;5961;42.640;23.380;2023-05-11T13:00:49;94262.53;;;11.89;82.82
11808;BME280;5961;42.640;23.380;2023-05-11T13:03:20;94255.22;;;11.86;83.06
11808;BME280;5961;42.640;23.380;2023-05-11T13:05:47;94242.78;;;11.90;83.25
11808;BME280;5961;42.640;23.380;2023-05-11T13:08:14;94258.91;;;11.81;82.80
11808;BME280;5961;42.640;23.380;2023-05-11T13:10:44;94246.00;;;11.83;83.16
11808;BME280;5961;42.640;23.380;2023-05-11T13:13:24;94245.56;;;11.93;83.23
11808;BME280;5961;42.640;23.380;2023-05-11T13:15:51;94245.66;;;11.97;82.46
11808;BME280;5961;42.640;23.380;2023-05-11T13:18:18;94240.53;;;12.04;82.46